Huvudsida
METAR-TAF:

METAR-TAF

Flygplatser :

Saint-Pierre, Réunion

latitud: 21-20S, longitud: 055-29E, höjd: 52 m

Aktuellt väderrapport

Denna rapport gjordes för 10 timmar och 48 minuter sedan, klockan 21:00 UTC
Vind 12 kt från ost/sydost
Temperatur 22°C
Fuktighet 73%
Tryck 1023 hPa
Sikt 10 km eller mer
Spridda moln på en höjd av 2800 ft
Brutna moln på en höjd av 3700 ft
Brutna moln på en höjd av 4600 ft

METAR: FMEP 242100Z AUTO 11012KT 9999 SCT028 BKN037 BKN046 22/17 Q1023

Tid: 11:48 (07:48 UTC)

Väderprognos

Denna rapport gjordes för 2 timmar och 48 minuter sedan, klockan 05:00 UTC
Prognos gäller från 25 kl. 06 UTC till 25 kl. 15 UTC
Vind 20 kt från ost/sydost
Sikt 10 km eller mer
Få moln på en höjd av 2600 ft
Spridda moln på en höjd av 5000 ft
Temporärt
från 25 kl. 06 UTC till 25 kl. 15 UTC
Vind 25 kt från ost/sydost i byarna ända upp till 40 kt

TAF: FMEP 250500Z 2506/2515 12020KT 9999 FEW026 SCT050 TEMPO 2506/2515 12025G40KT

Aktuella väderrapporter och prognoser från 4000 flygplatser (METAR- och TAF-rapporter).

De tillgängliga stationerna syns som gula och röda prickar på kartan.

För musen över prickarna för att se namnen på stationerna.

Klicka sedan för att få väderrapporter och prognoser.

För att ändra kartan: Klicka på de gröna knapparna med ett svart kors på för att zooma in; den gröna knappen med ett streck på för att zooma ut; eller på de gröna pilarna för angränsande kartor.


METAR-TAF: